createdAt,value
2018-11-20T00:00:42.414Z,1017.72
2018-11-20T00:01:42.367Z,1017.78
2018-11-20T00:02:42.318Z,1017.73
2018-11-20T00:03:42.270Z,1017.65
2018-11-20T00:04:42.222Z,1017.72
2018-11-20T00:05:42.174Z,1017.72
2018-11-20T00:06:42.126Z,1017.63
2018-11-20T00:07:42.078Z,1017.70
2018-11-20T00:08:42.029Z,1017.81
2018-11-20T00:09:41.982Z,1017.71
2018-11-20T00:10:41.934Z,1017.66
2018-11-20T00:11:41.885Z,1017.71
2018-11-20T00:12:41.839Z,1017.70
2018-11-20T00:13:41.789Z,1017.74
2018-11-20T00:14:41.744Z,1017.65
2018-11-20T00:15:41.693Z,1017.66
2018-11-20T00:16:41.645Z,1017.78
2018-11-20T00:17:41.597Z,1017.87
2018-11-20T00:18:41.549Z,1017.75
2018-11-20T00:19:41.500Z,1017.87
2018-11-20T00:20:41.453Z,1017.77
2018-11-20T00:21:41.408Z,1017.75
2018-11-20T00:22:41.357Z,1017.86
2018-11-20T00:23:41.308Z,1017.79
2018-11-20T00:24:41.260Z,1017.79
2018-11-20T00:25:41.212Z,1017.72
2018-11-20T00:26:41.164Z,1017.69
2018-11-20T00:27:41.116Z,1017.76
2018-11-20T00:28:41.069Z,1017.79
2018-11-20T00:29:41.020Z,1017.82
2018-11-20T00:30:40.971Z,1017.71
2018-11-20T00:31:40.922Z,1017.71
2018-11-20T00:32:40.875Z,1017.74
2018-11-20T00:33:40.827Z,1017.82
2018-11-20T00:34:40.779Z,1017.74
2018-11-20T00:35:40.730Z,1017.70
2018-11-20T00:36:40.682Z,1017.66
2018-11-20T00:37:40.634Z,1017.68
2018-11-20T00:38:40.586Z,1017.67
2018-11-20T00:39:40.537Z,1017.63
2018-11-20T00:40:40.492Z,1017.68
2018-11-20T00:41:40.441Z,1017.61
2018-11-20T00:42:40.469Z,1017.69
2018-11-20T00:43:40.346Z,1017.65
2018-11-20T00:44:40.296Z,1017.61
2018-11-20T00:45:40.248Z,1017.61
2018-11-20T00:46:40.201Z,1017.60
2018-11-20T00:47:40.151Z,1017.59
2018-11-20T00:48:40.103Z,1017.55
2018-11-20T00:49:40.056Z,1017.54
2018-11-20T00:50:40.008Z,1017.56
2018-11-20T00:51:40.008Z,1017.49
2018-11-20T00:52:39.911Z,1017.55
2018-11-20T00:53:39.863Z,1017.53
2018-11-20T00:54:39.814Z,1017.62
2018-11-20T00:55:39.766Z,1017.60
2018-11-20T00:56:39.718Z,1017.51
2018-11-20T00:57:39.671Z,1017.55
2018-11-20T00:58:39.623Z,1017.42
2018-11-20T00:59:39.573Z,1017.49
2018-11-20T01:00:39.525Z,1017.51
2018-11-20T01:01:39.481Z,1017.45
2018-11-20T01:02:39.429Z,1017.43
2018-11-20T01:03:39.383Z,1017.48
2018-11-20T01:04:39.332Z,1017.39
2018-11-20T01:05:39.288Z,1017.40
2018-11-20T01:06:39.237Z,1017.43
2018-11-20T01:07:39.188Z,1017.38
2018-11-20T01:08:39.140Z,1017.42
2018-11-20T01:09:39.093Z,1017.46
2018-11-20T01:10:39.044Z,1017.38
2018-11-20T01:11:38.996Z,1017.38
2018-11-20T01:12:38.948Z,1017.38
2018-11-20T01:13:38.900Z,1017.35
2018-11-20T01:14:38.852Z,1017.37
2018-11-20T01:15:38.804Z,1017.37
2018-11-20T01:16:38.755Z,1017.36
2018-11-20T01:17:38.708Z,1017.38
2018-11-20T01:18:38.660Z,1017.38
2018-11-20T01:19:38.610Z,1017.32
2018-11-20T01:20:38.563Z,1017.35
2018-11-20T01:21:38.515Z,1017.30
2018-11-20T01:22:38.467Z,1017.23
2018-11-20T01:23:38.418Z,1017.22
2018-11-20T01:24:38.370Z,1017.33
2018-11-20T01:25:38.323Z,1017.28
2018-11-20T01:26:38.275Z,1017.25
2018-11-20T01:27:38.543Z,1017.29
2018-11-20T01:28:38.178Z,1017.21
2018-11-20T01:29:38.130Z,1017.24
2018-11-20T01:30:38.083Z,1017.19
2018-11-20T01:31:38.034Z,1017.26
2018-11-20T01:32:37.986Z,1017.22
2018-11-20T01:33:37.938Z,1017.16
2018-11-20T01:34:37.890Z,1017.18
2018-11-20T01:35:37.841Z,1017.14
2018-11-20T01:36:37.794Z,1017.17
2018-11-20T01:37:37.746Z,1017.11
2018-11-20T01:38:37.698Z,1017.07
2018-11-20T01:39:37.649Z,1017.10
2018-11-20T01:40:37.601Z,1017.05
2018-11-20T01:41:37.644Z,1017.05
2018-11-20T01:42:37.510Z,1016.97
2018-11-20T01:43:37.458Z,1017.07
2018-11-20T01:44:37.410Z,1016.92
2018-11-20T01:45:37.369Z,1017.03
2018-11-20T01:46:37.314Z,1016.95
2018-11-20T01:47:37.265Z,1016.96
2018-11-20T01:48:37.217Z,1016.91
2018-11-20T01:49:37.169Z,1016.92
2018-11-20T01:50:37.121Z,1016.94
2018-11-20T01:51:37.073Z,1016.97
2018-11-20T01:52:37.025Z,1016.96
2018-11-20T01:53:36.977Z,1017.00
2018-11-20T01:54:36.929Z,1016.96
2018-11-20T01:55:36.881Z,1016.92
2018-11-20T01:56:36.833Z,1016.99
2018-11-20T01:57:36.785Z,1016.93
2018-11-20T01:58:36.737Z,1016.98
2018-11-20T01:59:36.688Z,1016.91
2018-11-20T02:00:36.641Z,1017.00
2018-11-20T02:01:36.593Z,1016.93
2018-11-20T02:02:36.551Z,1016.95
2018-11-20T02:03:36.500Z,1016.93
2018-11-20T02:04:36.450Z,1016.91
2018-11-20T02:05:36.401Z,1016.95
2018-11-20T02:06:36.355Z,1016.95
2018-11-20T02:07:36.304Z,1016.94
2018-11-20T02:08:36.256Z,1016.96
2018-11-20T02:09:36.208Z,1016.96
2018-11-20T02:10:36.162Z,1016.92
2018-11-20T02:11:36.111Z,1017.10
2018-11-20T02:12:36.063Z,1016.86
2018-11-20T02:13:36.016Z,1016.90
2018-11-20T02:14:35.971Z,1016.90
2018-11-20T02:15:35.919Z,1016.84
2018-11-20T02:16:35.872Z,1016.88
2018-11-20T02:17:35.823Z,1016.91
2018-11-20T02:18:35.776Z,1016.79
2018-11-20T02:19:35.727Z,1016.83
2018-11-20T02:20:35.679Z,1016.89
2018-11-20T02:21:35.631Z,1016.80
2018-11-20T02:22:35.583Z,1016.86
2018-11-20T02:23:35.534Z,1016.84
2018-11-20T02:24:35.487Z,1016.80
2018-11-20T02:25:35.439Z,1016.85
2018-11-20T02:26:35.391Z,1016.73
2018-11-20T02:27:35.342Z,1016.81
2018-11-20T02:28:35.296Z,1016.70
2018-11-20T02:29:35.246Z,1016.73
2018-11-20T02:30:35.199Z,1016.78
2018-11-20T02:31:35.150Z,1016.75
2018-11-20T02:32:35.102Z,1016.76
2018-11-20T02:33:35.054Z,1016.74
2018-11-20T02:34:35.006Z,1016.78
2018-11-20T02:35:34.958Z,1016.73
2018-11-20T02:36:34.909Z,1016.69
2018-11-20T02:37:34.862Z,1016.69
2018-11-20T02:38:34.814Z,1016.64
2018-11-20T02:39:34.765Z,1016.66
2018-11-20T02:40:34.717Z,1016.67
2018-11-20T02:41:34.669Z,1016.63
2018-11-20T02:42:34.622Z,1016.56
2018-11-20T02:43:34.573Z,1016.66
2018-11-20T02:44:34.525Z,1016.72
2018-11-20T02:45:34.478Z,1016.55
2018-11-20T02:46:34.429Z,1016.58
2018-11-20T02:47:34.381Z,1016.58
2018-11-20T02:48:34.332Z,1016.54
2018-11-20T02:49:34.285Z,1016.48
2018-11-20T02:50:34.237Z,1016.44
2018-11-20T02:51:34.308Z,1016.62
2018-11-20T02:52:34.142Z,1016.54
2018-11-20T02:53:34.095Z,1016.49
2018-11-20T02:54:34.044Z,1016.54
2018-11-20T02:55:34.312Z,1016.52
2018-11-20T02:56:34.266Z,1016.48
2018-11-20T02:57:33.900Z,1016.47
2018-11-20T02:58:33.853Z,1016.44
2018-11-20T02:59:33.803Z,1016.38
2018-11-20T03:00:33.757Z,1016.30
2018-11-20T03:01:33.707Z,1016.32
2018-11-20T03:02:33.663Z,1016.22
2018-11-20T03:03:33.664Z,1016.37
2018-11-20T03:04:33.563Z,1016.41
2018-11-20T03:05:33.516Z,1016.36
2018-11-20T03:06:33.467Z,1016.25
2018-11-20T03:07:33.422Z,1016.35
2018-11-20T03:08:33.371Z,1016.38
2018-11-20T03:09:33.325Z,1016.29
2018-11-20T03:10:33.275Z,1016.29
2018-11-20T03:11:33.226Z,1016.26
2018-11-20T03:12:33.178Z,1016.25
2018-11-20T03:13:33.131Z,1016.25
2018-11-20T03:14:33.082Z,1016.26
2018-11-20T03:15:33.036Z,1016.16
2018-11-20T03:16:32.985Z,1016.11
2018-11-20T03:17:32.938Z,1016.09
2018-11-20T03:18:32.897Z,1016.04
2018-11-20T03:19:32.841Z,1016.02
2018-11-20T03:20:32.793Z,1015.92
2018-11-20T03:21:32.746Z,1016.02
2018-11-20T03:22:32.701Z,1015.96
2018-11-20T03:23:32.649Z,1015.86
2018-11-20T03:24:32.602Z,1015.81
2018-11-20T03:25:32.557Z,1015.90
2018-11-20T03:26:32.505Z,1015.77
2018-11-20T03:27:32.456Z,1015.83
2018-11-20T03:28:32.409Z,1015.80
2018-11-20T03:29:32.361Z,1015.85
2018-11-20T03:30:32.313Z,1015.88
2018-11-20T03:31:32.264Z,1015.89
2018-11-20T03:32:32.216Z,1015.92
2018-11-20T03:33:32.170Z,1015.89
2018-11-20T03:34:32.124Z,1015.92
2018-11-20T03:35:32.071Z,1015.87
2018-11-20T03:36:32.024Z,1015.83
2018-11-20T03:37:31.976Z,1015.81
2018-11-20T03:38:31.928Z,1015.78
2018-11-20T03:39:31.879Z,1015.83
2018-11-20T03:40:31.831Z,1015.72
2018-11-20T03:41:31.784Z,1015.76
2018-11-20T03:42:31.739Z,1015.77
2018-11-20T03:43:31.686Z,1015.71
2018-11-20T03:44:31.639Z,1015.83
2018-11-20T03:45:31.595Z,1015.72
2018-11-20T03:46:31.543Z,1015.69
2018-11-20T03:47:31.544Z,1015.73
2018-11-20T03:48:31.446Z,1015.69
2018-11-20T03:49:31.398Z,1015.69
2018-11-20T03:50:31.350Z,1015.69
2018-11-20T03:51:31.301Z,1015.67
2018-11-20T03:52:31.254Z,1015.65
2018-11-20T03:53:31.206Z,1015.68
2018-11-20T03:54:31.159Z,1015.64
2018-11-20T03:55:31.109Z,1015.64
2018-11-20T03:56:31.061Z,1015.62
2018-11-20T03:57:31.013Z,1015.63
2018-11-20T03:58:30.965Z,1015.59
2018-11-20T03:59:30.916Z,1015.62
2018-11-20T04:00:30.869Z,1015.66
2018-11-20T04:01:30.830Z,1015.61
2018-11-20T04:02:30.773Z,1015.63
2018-11-20T04:03:30.724Z,1015.60
2018-11-20T04:04:30.676Z,1015.63
2018-11-20T04:05:30.629Z,1015.63
2018-11-20T04:06:30.580Z,1015.63
2018-11-20T04:07:30.533Z,1015.61
2018-11-20T04:08:30.483Z,1015.61
2018-11-20T04:09:30.442Z,1015.56
2018-11-20T04:10:30.388Z,1015.55
2018-11-20T04:11:30.339Z,1015.58
2018-11-20T04:12:30.292Z,1015.59
2018-11-20T04:13:30.294Z,1015.60
2018-11-20T04:14:30.202Z,1015.68
2018-11-20T04:15:30.148Z,1015.62
2018-11-20T04:16:30.099Z,1015.61
2018-11-20T04:17:30.051Z,1015.64
2018-11-20T04:18:30.003Z,1015.59
2018-11-20T04:19:29.954Z,1015.65
2018-11-20T04:20:29.911Z,1015.68
2018-11-20T04:21:29.860Z,1015.62
2018-11-20T04:22:29.811Z,1015.67
2018-11-20T04:23:29.763Z,1015.66
2018-11-20T04:24:29.715Z,1015.66
2018-11-20T04:25:29.667Z,1015.61
2018-11-20T04:26:29.619Z,1015.67
2018-11-20T04:27:29.571Z,1015.66
2018-11-20T04:28:29.524Z,1015.68
2018-11-20T04:29:29.475Z,1015.70
2018-11-20T04:30:29.426Z,1015.71
2018-11-20T04:31:29.379Z,1015.77
2018-11-20T04:32:29.336Z,1015.68
2018-11-20T04:33:29.282Z,1015.76
2018-11-20T04:34:29.234Z,1015.77
2018-11-20T04:35:29.186Z,1015.78
2018-11-20T04:36:29.138Z,1015.81
2018-11-20T04:37:29.094Z,1015.80
2018-11-20T04:38:29.042Z,1015.80
2018-11-20T04:39:28.994Z,1015.81
2018-11-20T04:40:28.946Z,1015.80
2018-11-20T04:41:28.899Z,1015.77
2018-11-20T04:42:28.854Z,1015.79
2018-11-20T04:43:28.801Z,1015.91
2018-11-20T04:44:28.754Z,1015.83
2018-11-20T04:45:28.706Z,1015.80
2018-11-20T04:46:28.658Z,1015.75
2018-11-20T04:47:28.609Z,1015.82
2018-11-20T04:48:28.561Z,1015.84
2018-11-20T04:49:28.514Z,1015.78
2018-11-20T04:50:28.466Z,1015.84
2018-11-20T04:51:28.417Z,1015.81
2018-11-20T04:52:28.369Z,1015.80
2018-11-20T04:53:28.324Z,1015.79
2018-11-20T04:54:28.274Z,1015.77
2018-11-20T04:55:28.225Z,1015.73
2018-11-20T04:56:28.177Z,1015.80
2018-11-20T04:57:28.158Z,1015.76
2018-11-20T04:58:28.083Z,1015.73
2018-11-20T04:59:28.033Z,1015.78
2018-11-20T05:00:27.986Z,1015.87
2018-11-20T05:01:27.937Z,1015.82
2018-11-20T05:02:27.889Z,1015.85
2018-11-20T05:03:27.840Z,1015.89
2018-11-20T05:04:27.793Z,1015.87
2018-11-20T05:05:27.744Z,1015.94
2018-11-20T05:06:27.727Z,1015.79
2018-11-20T05:07:27.648Z,1015.94
2018-11-20T05:08:27.600Z,1015.85
2018-11-20T05:09:27.552Z,1015.90
2018-11-20T05:10:27.504Z,1015.81
2018-11-20T05:11:27.456Z,1015.81
2018-11-20T05:12:27.408Z,1015.77
2018-11-20T05:13:27.557Z,1015.85
2018-11-20T05:14:27.311Z,1015.86
2018-11-20T05:15:27.262Z,1015.84
2018-11-20T05:16:27.215Z,1015.77
2018-11-20T05:17:27.166Z,1015.80
2018-11-20T05:18:27.119Z,1015.95
2018-11-20T05:19:27.070Z,1015.95
2018-11-20T05:20:27.023Z,1015.90
2018-11-20T05:21:26.975Z,1015.86
2018-11-20T05:22:26.926Z,1015.83
2018-11-20T05:23:26.879Z,1015.84
2018-11-20T05:24:26.830Z,1015.90
2018-11-20T05:25:26.781Z,1015.86
2018-11-20T05:26:26.734Z,1015.76
2018-11-20T05:27:26.688Z,1015.85
2018-11-20T05:28:26.637Z,1015.74
2018-11-20T05:29:26.589Z,1015.78
2018-11-20T05:30:26.542Z,1015.88
2018-11-20T05:31:26.492Z,1015.80
2018-11-20T05:32:26.444Z,1015.75
2018-11-20T05:33:26.396Z,1015.78
2018-11-20T05:34:26.348Z,1015.80
2018-11-20T05:35:26.299Z,1015.93
2018-11-20T05:36:26.252Z,1015.93
2018-11-20T05:37:26.206Z,1015.96
2018-11-20T05:38:26.155Z,1015.90
2018-11-20T05:39:26.108Z,1015.88
2018-11-20T05:40:26.098Z,1015.90
2018-11-20T05:41:26.010Z,1015.96
2018-11-20T05:42:25.962Z,1015.90
2018-11-20T05:43:25.913Z,1015.93
2018-11-20T05:44:25.865Z,1015.90
2018-11-20T05:45:25.817Z,1015.96
2018-11-20T05:46:25.769Z,1015.92
2018-11-20T05:47:25.721Z,1016.03
2018-11-20T05:48:25.672Z,1016.21
2018-11-20T05:49:25.624Z,1016.07
2018-11-20T05:50:25.576Z,1016.02
2018-11-20T05:51:25.527Z,1016.10
2018-11-20T05:52:25.478Z,1016.06
2018-11-20T05:53:25.431Z,1016.11
2018-11-20T05:54:25.382Z,1016.06
2018-11-20T05:55:25.336Z,1016.10
2018-11-20T05:56:25.285Z,1016.03
2018-11-20T05:57:25.237Z,1016.07
2018-11-20T05:58:25.189Z,1016.03
2018-11-20T05:59:25.143Z,1016.09
2018-11-20T06:00:25.093Z,1016.07
2018-11-20T06:01:25.045Z,1016.04
2018-11-20T06:02:24.996Z,1016.08
2018-11-20T06:03:24.948Z,1016.09
2018-11-20T06:04:24.899Z,1016.07
2018-11-20T06:05:24.853Z,1016.03
2018-11-20T06:06:24.803Z,1016.08
2018-11-20T06:07:24.754Z,1016.02
2018-11-20T06:08:24.706Z,1016.02
2018-11-20T06:09:24.657Z,1016.13
2018-11-20T06:10:24.610Z,1016.05
2018-11-20T06:11:24.611Z,1016.08
2018-11-20T06:12:24.513Z,1016.18
2018-11-20T06:13:24.465Z,1016.12
2018-11-20T06:14:24.417Z,1016.05
2018-11-20T06:15:24.368Z,1016.14
2018-11-20T06:16:24.319Z,1016.15
2018-11-20T06:17:24.271Z,1016.16
2018-11-20T06:18:24.223Z,1016.12
2018-11-20T06:19:24.174Z,1016.20
2018-11-20T06:20:24.126Z,1016.09
2018-11-20T06:21:24.078Z,1016.20
2018-11-20T06:22:24.030Z,1016.19
2018-11-20T06:23:23.981Z,1016.14
2018-11-20T06:24:23.933Z,1016.14
2018-11-20T06:25:23.885Z,1016.17
2018-11-20T06:26:23.838Z,1016.13
2018-11-20T06:27:23.788Z,1016.16
2018-11-20T06:28:23.740Z,1016.12
2018-11-20T06:29:23.827Z,1016.18
2018-11-20T06:30:23.643Z,1016.12
2018-11-20T06:31:23.597Z,1016.12
2018-11-20T06:32:23.546Z,1016.29
2018-11-20T06:33:23.499Z,1016.26
2018-11-20T06:34:23.503Z,1016.16
2018-11-20T06:35:23.401Z,1016.18
2018-11-20T06:36:23.354Z,1016.12
2018-11-20T06:37:23.311Z,1016.13
2018-11-20T06:38:23.256Z,1016.20
2018-11-20T06:39:23.211Z,1016.22
2018-11-20T06:40:23.163Z,1016.22
2018-11-20T06:41:23.234Z,1016.18
2018-11-20T06:42:23.064Z,1016.16
2018-11-20T06:43:23.015Z,1016.16
2018-11-20T06:44:22.968Z,1016.15
2018-11-20T06:45:22.919Z,1016.14
2018-11-20T06:46:22.872Z,1016.10
2018-11-20T06:47:22.922Z,1016.12
2018-11-20T06:48:22.774Z,1016.12
2018-11-20T06:49:22.726Z,1016.13
2018-11-20T06:50:22.678Z,1016.08
2018-11-20T06:51:22.629Z,1016.09
2018-11-20T06:52:22.583Z,1016.09
2018-11-20T06:53:22.604Z,1016.11
2018-11-20T06:54:22.486Z,1016.05
2018-11-20T06:55:22.437Z,1016.03
2018-11-20T06:56:22.390Z,1016.33
2018-11-20T06:57:22.392Z,1016.21
2018-11-20T06:58:22.292Z,1016.20
2018-11-20T06:59:22.243Z,1016.19
2018-11-20T07:00:22.196Z,1016.21
2018-11-20T07:01:22.174Z,1016.27
2018-11-20T07:02:22.416Z,1016.25
2018-11-20T07:03:22.050Z,1016.23
2018-11-20T07:04:22.002Z,1016.32
2018-11-20T07:05:21.953Z,1016.34
2018-11-20T07:06:21.905Z,1016.32
2018-11-20T07:07:22.003Z,1016.31
2018-11-20T07:08:21.901Z,1016.29
2018-11-20T07:09:21.760Z,1016.26
2018-11-20T07:10:21.713Z,1016.26
2018-11-20T07:11:21.664Z,1016.23
2018-11-20T07:12:21.616Z,1016.21
2018-11-20T07:13:21.568Z,1016.24
2018-11-20T07:14:21.527Z,1016.23
2018-11-20T07:15:21.588Z,1016.21
2018-11-20T07:16:21.477Z,1016.27
2018-11-20T07:17:21.375Z,1016.20
2018-11-20T07:18:21.376Z,1016.28
2018-11-20T07:19:21.277Z,1016.24
2018-11-20T07:20:21.230Z,1016.17
2018-11-20T07:21:21.182Z,1016.26
2018-11-20T07:22:21.148Z,1016.20
2018-11-20T07:23:21.085Z,1016.21
2018-11-20T07:24:21.057Z,1016.25
2018-11-20T07:25:21.039Z,1016.20
2018-11-20T07:26:20.940Z,1016.20
2018-11-20T07:27:20.942Z,1016.11
2018-11-20T07:28:20.844Z,1016.12
2018-11-20T07:29:20.803Z,1016.16
2018-11-20T07:30:20.847Z,1016.07
2018-11-20T07:31:20.816Z,1016.04
2018-11-20T07:32:20.651Z,1016.02
2018-11-20T07:33:20.602Z,1015.91
2018-11-20T07:34:20.554Z,1016.01
2018-11-20T07:35:20.505Z,1015.97
2018-11-20T07:36:20.582Z,1015.96
2018-11-20T07:37:20.741Z,1015.92
2018-11-20T07:38:20.396Z,1015.84
2018-11-20T07:39:20.319Z,1015.89
2018-11-20T07:40:20.264Z,1015.91
2018-11-20T07:41:20.216Z,1015.85
2018-11-20T07:42:20.167Z,1015.84
2018-11-20T07:43:20.151Z,1015.88
2018-11-20T07:44:20.192Z,1015.84
2018-11-20T07:45:20.074Z,1015.83
2018-11-20T07:46:19.982Z,1015.84
2018-11-20T07:47:19.927Z,1015.88
2018-11-20T07:48:19.880Z,1015.79
2018-11-20T07:49:19.831Z,1015.80
2018-11-20T07:50:19.783Z,1015.84
2018-11-20T07:51:19.733Z,1015.81
2018-11-20T07:52:19.686Z,1015.79
2018-11-20T07:53:19.637Z,1015.82
2018-11-20T07:54:19.590Z,1015.79
2018-11-20T07:55:19.559Z,1015.82
2018-11-20T07:56:19.672Z,1015.87
2018-11-20T07:57:19.443Z,1015.81
2018-11-20T07:58:19.407Z,1015.84
2018-11-20T07:59:19.347Z,1015.76
2018-11-20T08:00:19.300Z,1015.84
2018-11-20T08:01:19.251Z,1015.78
2018-11-20T08:02:19.285Z,1015.77
2018-11-20T08:03:19.205Z,1015.85
2018-11-20T08:04:19.106Z,1015.78
2018-11-20T08:05:19.058Z,1015.75
2018-11-20T08:06:19.011Z,1015.71
2018-11-20T08:07:18.964Z,1015.74
2018-11-20T08:08:18.950Z,1015.76
2018-11-20T08:09:18.873Z,1015.75
2018-11-20T08:10:18.842Z,1015.76
2018-11-20T08:11:18.771Z,1015.79
2018-11-20T08:12:18.721Z,1015.73
2018-11-20T08:13:18.672Z,1015.73
2018-11-20T08:14:18.625Z,1015.75
2018-11-20T08:15:18.605Z,1015.70
2018-11-20T08:16:18.527Z,1015.68
2018-11-20T08:17:18.480Z,1015.67
2018-11-20T08:18:18.432Z,1015.76
2018-11-20T08:19:18.383Z,1015.76
2018-11-20T08:20:18.338Z,1015.69
2018-11-20T08:21:18.286Z,1015.70
2018-11-20T08:22:18.239Z,1015.76
2018-11-20T08:23:18.190Z,1015.67
2018-11-20T08:24:18.146Z,1015.71
2018-11-20T08:25:18.107Z,1015.67
2018-11-20T08:26:18.232Z,1015.66
2018-11-20T08:27:17.997Z,1015.66
2018-11-20T08:28:17.950Z,1015.62
2018-11-20T08:29:17.902Z,1015.70
2018-11-20T08:30:17.853Z,1015.65
2018-11-20T08:31:17.806Z,1015.65
2018-11-20T08:32:17.758Z,1015.67
2018-11-20T08:33:17.710Z,1015.73
2018-11-20T08:34:17.736Z,1015.65
2018-11-20T08:35:17.831Z,1015.64
2018-11-20T08:36:17.567Z,1015.64
2018-11-20T08:37:17.577Z,1015.67
2018-11-20T08:38:17.469Z,1015.66
2018-11-20T08:39:17.420Z,1015.61
2018-11-20T08:40:17.372Z,1015.61
2018-11-20T08:41:17.325Z,1015.61
2018-11-20T08:42:17.353Z,1015.61
2018-11-20T08:43:17.227Z,1015.67
2018-11-20T08:44:17.194Z,1015.68
2018-11-20T08:45:17.182Z,1015.58
2018-11-20T08:46:17.084Z,1015.64
2018-11-20T08:47:17.036Z,1015.63
2018-11-20T08:48:17.095Z,1015.72
2018-11-20T08:49:16.991Z,1015.65
2018-11-20T08:50:16.892Z,1015.60
2018-11-20T08:51:16.842Z,1015.59
2018-11-20T08:52:16.796Z,1015.62
2018-11-20T08:53:16.748Z,1015.59
2018-11-20T08:54:16.700Z,1015.55
2018-11-20T08:55:16.651Z,1015.53
2018-11-20T08:56:16.602Z,1015.60
2018-11-20T08:57:16.556Z,1015.52
2018-11-20T08:58:16.507Z,1015.51
2018-11-20T08:59:16.459Z,1015.57
2018-11-20T09:00:16.410Z,1015.55
2018-11-20T09:01:16.364Z,1015.47
2018-11-20T09:02:16.469Z,1015.53
2018-11-20T09:03:16.433Z,1015.53
2018-11-20T09:04:16.219Z,1015.62
2018-11-20T09:05:16.171Z,1015.53
2018-11-20T09:06:16.122Z,1015.51
2018-11-20T09:07:16.074Z,1015.54
2018-11-20T09:08:16.026Z,1015.56
2018-11-20T09:09:15.979Z,1015.46
2018-11-20T09:10:15.989Z,1015.49
2018-11-20T09:11:15.885Z,1015.49
2018-11-20T09:12:15.839Z,1015.45
2018-11-20T09:13:15.786Z,1015.39
2018-11-20T09:14:15.737Z,1015.32
2018-11-20T09:15:15.689Z,1015.36
2018-11-20T09:16:15.640Z,1015.39
2018-11-20T09:17:15.594Z,1015.42
2018-11-20T09:18:15.546Z,1015.45
2018-11-20T09:19:15.496Z,1015.38
2018-11-20T09:20:15.463Z,1015.36
2018-11-20T09:21:15.485Z,1015.43
2018-11-20T09:22:15.353Z,1015.44
2018-11-20T09:23:15.304Z,1015.55
2018-11-20T09:24:15.256Z,1015.49
2018-11-20T09:25:15.210Z,1015.47
2018-11-20T09:26:15.162Z,1015.50
2018-11-20T09:27:15.112Z,1015.43
2018-11-20T09:28:15.064Z,1015.42
2018-11-20T09:29:15.017Z,1015.40
2018-11-20T09:30:14.969Z,1015.38
2018-11-20T09:31:14.920Z,1015.35
2018-11-20T09:32:14.871Z,1015.32
2018-11-20T09:33:14.874Z,1015.29
2018-11-20T09:34:14.843Z,1015.29
2018-11-20T09:35:14.850Z,1015.25
2018-11-20T09:36:14.680Z,1015.32
2018-11-20T09:37:14.633Z,1015.25
2018-11-20T09:38:14.584Z,1015.19
2018-11-20T09:39:14.585Z,1015.18
2018-11-20T09:40:14.486Z,1015.20
2018-11-20T09:41:14.438Z,1015.09
2018-11-20T09:42:14.391Z,1015.15
2018-11-20T09:43:14.342Z,1015.08
2018-11-20T09:44:14.294Z,1015.13
2018-11-20T09:45:14.245Z,1015.11
2018-11-20T09:46:14.198Z,1015.04
2018-11-20T09:47:14.291Z,1015.00
2018-11-20T09:48:14.101Z,1014.95
2018-11-20T09:49:14.055Z,1014.93
2018-11-20T09:50:14.006Z,1014.94
2018-11-20T09:51:13.957Z,1014.94
2018-11-20T09:52:13.933Z,1014.94
2018-11-20T09:53:13.860Z,1014.90
2018-11-20T09:54:13.826Z,1014.80
2018-11-20T09:55:13.768Z,1014.93
2018-11-20T09:56:13.718Z,1014.93
2018-11-20T09:57:13.668Z,1014.78
2018-11-20T09:58:13.621Z,1014.69
2018-11-20T09:59:13.583Z,1014.73
2018-11-20T10:00:13.529Z,1014.66
2018-11-20T10:01:13.477Z,1014.72
2018-11-20T10:02:13.428Z,1014.72
2018-11-20T10:03:13.380Z,1014.66
2018-11-20T10:04:13.332Z,1014.65
2018-11-20T10:05:13.286Z,1014.65
2018-11-20T10:06:13.237Z,1014.70
2018-11-20T10:07:13.256Z,1014.73
2018-11-20T10:08:13.140Z,1014.82
2018-11-20T10:09:13.093Z,1014.76
2018-11-20T10:10:13.044Z,1014.70
2018-11-20T10:11:12.994Z,1014.79
2018-11-20T10:12:12.947Z,1014.83
2018-11-20T10:13:12.900Z,1014.72
2018-11-20T10:14:12.984Z,1014.75
2018-11-20T10:15:12.861Z,1014.84
2018-11-20T10:16:12.755Z,1014.85
2018-11-20T10:17:12.707Z,1014.74
2018-11-20T10:18:12.660Z,1014.78
2018-11-20T10:19:12.610Z,1014.84
2018-11-20T10:20:12.568Z,1014.81
2018-11-20T10:21:12.516Z,1014.72
2018-11-20T10:22:12.589Z,1014.75
2018-11-20T10:23:12.418Z,1014.68
2018-11-20T10:24:12.369Z,1014.69
2018-11-20T10:25:12.377Z,1014.69
2018-11-20T10:26:12.394Z,1014.70
2018-11-20T10:27:12.225Z,1014.66
2018-11-20T10:28:12.178Z,1014.66
2018-11-20T10:29:12.132Z,1014.64
2018-11-20T10:30:12.082Z,1014.63
2018-11-20T10:31:12.033Z,1014.56
2018-11-20T10:32:11.985Z,1014.55
2018-11-20T10:33:11.937Z,1014.63
2018-11-20T10:34:11.954Z,1014.54
2018-11-20T10:35:11.840Z,1014.67
2018-11-20T10:36:11.792Z,1014.62
2018-11-20T10:37:11.745Z,1014.53
2018-11-20T10:38:11.697Z,1014.58
2018-11-20T10:39:11.647Z,1014.58
2018-11-20T10:40:11.647Z,1014.58
2018-11-20T10:41:11.553Z,1014.54
2018-11-20T10:42:11.504Z,1014.64
2018-11-20T10:43:11.455Z,1014.65
2018-11-20T10:44:11.407Z,1014.59
2018-11-20T10:45:11.365Z,1014.58
2018-11-20T10:46:11.420Z,1014.59
2018-11-20T10:47:11.263Z,1014.63
2018-11-20T10:48:11.214Z,1014.63
2018-11-20T10:49:11.166Z,1014.61
2018-11-20T10:50:11.124Z,1014.52
2018-11-20T10:51:11.140Z,1014.57
2018-11-20T10:52:11.022Z,1014.56
2018-11-20T10:53:10.973Z,1014.51
2018-11-20T10:54:10.940Z,1014.54
2018-11-20T10:55:10.877Z,1014.54
2018-11-20T10:56:10.834Z,1014.48
2018-11-20T10:57:10.782Z,1014.63
2018-11-20T10:58:10.734Z,1014.53
2018-11-20T10:59:10.687Z,1014.48
2018-11-20T11:00:10.637Z,1014.46
2018-11-20T11:01:10.589Z,1014.42
2018-11-20T11:02:10.540Z,1014.48
2018-11-20T11:03:10.492Z,1014.47
2018-11-20T11:04:10.481Z,1014.49
2018-11-20T11:05:10.521Z,1014.50
2018-11-20T11:06:10.373Z,1014.56
2018-11-20T11:07:10.671Z,1014.37
2018-11-20T11:08:10.347Z,1014.51
2018-11-20T11:09:10.203Z,1014.42
2018-11-20T11:10:10.161Z,1014.42
2018-11-20T11:11:10.106Z,1014.42
2018-11-20T11:12:10.095Z,1014.45
2018-11-20T11:13:10.012Z,1014.43
2018-11-20T11:14:09.963Z,1014.40
2018-11-20T11:15:09.915Z,1014.59
2018-11-20T11:16:09.866Z,1014.41
2018-11-20T11:17:09.819Z,1014.59
2018-11-20T11:18:09.810Z,1014.39
2018-11-20T11:19:09.726Z,1014.43
2018-11-20T11:20:09.692Z,1014.40
2018-11-20T11:21:09.749Z,1014.45
2018-11-20T11:22:09.582Z,1014.43
2018-11-20T11:23:09.531Z,1014.42
2018-11-20T11:24:09.483Z,1014.40
2018-11-20T11:25:09.443Z,1014.35
2018-11-20T11:26:09.388Z,1014.42
2018-11-20T11:27:09.338Z,1014.33
2018-11-20T11:28:09.290Z,1014.43
2018-11-20T11:29:09.246Z,1014.41
2018-11-20T11:30:09.195Z,1014.40
2018-11-20T11:31:09.146Z,1014.31
2018-11-20T11:32:09.098Z,1014.34
2018-11-20T11:33:09.050Z,1014.35
2018-11-20T11:34:09.007Z,1014.41
2018-11-20T11:35:08.954Z,1014.30
2018-11-20T11:36:08.906Z,1014.31
2018-11-20T11:37:08.876Z,1014.48
2018-11-20T11:38:08.810Z,1014.27
2018-11-20T11:39:08.764Z,1014.35
2018-11-20T11:40:08.713Z,1014.37
2018-11-20T11:41:08.665Z,1014.31
2018-11-20T11:42:08.617Z,1014.29
2018-11-20T11:43:08.568Z,1014.32
2018-11-20T11:44:08.520Z,1014.31
2018-11-20T11:45:08.477Z,1014.27
2018-11-20T11:46:08.423Z,1014.29
2018-11-20T11:47:08.375Z,1014.36
2018-11-20T11:48:08.327Z,1014.28
2018-11-20T11:49:08.280Z,1014.25
2018-11-20T11:50:08.231Z,1014.29
2018-11-20T11:51:08.182Z,1014.30
2018-11-20T11:52:08.135Z,1014.24
2018-11-20T11:53:08.087Z,1014.24
2018-11-20T11:54:08.043Z,1014.22
2018-11-20T11:55:08.020Z,1014.24
2018-11-20T11:56:07.946Z,1014.26
2018-11-20T11:57:07.894Z,1014.26
2018-11-20T11:58:07.846Z,1014.27
2018-11-20T11:59:07.800Z,1014.23
2018-11-20T12:00:07.751Z,1014.33
2018-11-20T12:01:07.700Z,1014.29
2018-11-20T12:03:46.961Z,1014.35
2018-11-20T12:04:46.912Z,1014.23
2018-11-20T12:05:46.862Z,1014.25
2018-11-20T12:06:46.815Z,1014.25